Time;durP1;ratioP1;P1;durP2;ratioP2;P2;SDS_P1;SDS_P2;PMS_P1;PMS_P2;Temp;Humidity;BMP_temperature;BMP_pressure;BME280_temperature;BME280_humidity;BME280_pressure;Samples;Min_cycle;Max_cycle;Signal;HPM_P1;HPM_P2
2022/04/13 00:01:09;;;;;;;22.50;11.08;;;;;;;4.82;52.21;100731.87;2061067;85;31431;-61
2022/04/13 00:04:11;;;;;;;21.17;11.97;;;;;;;4.78;52.43;100731.50;2072315;85;33944;-61
2022/04/13 00:07:12;;;;;;;20.70;11.25;;;;;;;4.74;52.50;100735.11;2041444;85;29956;-62
2022/04/13 00:10:14;;;;;;;24.90;10.85;;;;;;;4.71;52.49;100732.54;2057703;85;27679;-62
2022/04/13 00:13:16;;;;;;;18.80;11.33;;;;;;;4.70;52.86;100729.00;2071933;85;29859;-61
2022/04/13 00:16:18;;;;;;;21.75;12.58;;;;;;;4.70;52.63;100728.13;2056996;85;31421;-61
2022/04/13 00:19:24;;;;;;;22.05;11.80;;;;;;;4.70;52.85;100728.13;2030986;87;33747;-61
2022/04/13 00:22:26;;;;;;;27.42;11.48;;;;;;;4.70;52.84;100726.80;2031075;87;29348;-60
2022/04/13 00:25:28;;;;;;;20.08;11.30;;;;;;;4.70;52.97;100732.97;2031279;87;27643;-60
2022/04/13 00:28:30;;;;;;;22.60;11.50;;;;;;;4.70;52.98;100726.80;2036033;87;29093;-60
2022/04/13 00:31:31;;;;;;;25.23;12.43;;;;;;;4.71;53.04;100728.56;2036278;87;31653;-60
2022/04/13 00:34:33;;;;;;;25.52;12.37;;;;;;;4.71;52.84;100728.56;2053499;86;33408;-61
2022/04/13 00:37:38;;;;;;;19.82;11.12;;;;;;;4.69;52.84;100719.28;2082677;84;29784;-60
2022/04/13 00:40:41;;;;;;;20.27;11.55;;;;;;;4.68;52.94;100708.70;2102357;84;28114;-61
2022/04/13 00:43:43;;;;;;;24.85;11.85;;;;;;;4.66;52.99;100711.37;2067802;85;29554;-59
2022/04/13 00:46:45;;;;;;;22.00;12.23;;;;;;;4.63;53.17;100719.84;2045565;87;31021;-60
2022/04/13 00:49:47;;;;;;;21.45;11.85;;;;;;;4.61;53.06;100726.52;2078929;84;33497;-60
2022/04/13 00:52:50;;;;;;;29.80;12.15;;;;;;;4.59;53.41;100728.33;2066913;86;29750;-60
2022/04/13 00:55:57;;;;;;;22.48;11.80;;;;;;;4.59;53.34;100727.43;2070056;85;27769;-60
2022/04/13 00:59:04;;;;;;;22.90;12.53;;;;;;;4.56;53.49;100735.86;2099142;84;28699;-60
2022/04/13 01:02:08;;;;;;;25.92;13.72;;;;;;;4.55;53.61;100734.58;2059935;85;32335;-61
2022/04/13 01:05:11;;;;;;;26.65;13.98;;;;;;;4.54;53.59;100737.70;2044917;87;33028;-61
2022/04/13 01:08:15;;;;;;;22.32;12.88;;;;;;;4.53;53.56;100735.05;2072193;85;29341;-60
2022/04/13 01:11:20;;;;;;;25.25;12.45;;;;;;;4.51;53.54;100743.05;2072422;85;27611;-60
2022/04/13 01:14:22;;;;;;;27.77;13.08;;;;;;;4.50;53.55;100741.30;2071902;85;29231;-60
2022/04/13 01:17:24;;;;;;;28.35;14.07;;;;;;;4.47;53.66;100736.51;2080725;84;31740;-60
2022/04/13 01:20:26;;;;;;;28.45;13.85;;;;;;;4.45;53.60;100739.17;2074366;85;33430;-60
2022/04/13 01:23:31;;;;;;;22.98;12.53;;;;;;;4.44;53.70;100735.23;2039420;87;29750;-61
2022/04/13 01:26:33;;;;;;;22.95;13.65;;;;;;;4.41;53.73;100738.36;2070085;85;28224;-60
2022/04/13 01:29:35;;;;;;;26.62;13.60;;;;;;;4.38;53.94;100729.58;2063160;85;29882;-60
2022/04/13 01:32:37;;;;;;;25.05;13.55;;;;;;;4.37;53.82;100726.04;2044123;85;31952;-64
2022/04/13 01:35:39;;;;;;;24.55;14.33;;;;;;;4.35;54.13;100726.98;2062486;85;33920;-60
2022/04/13 01:38:41;;;;;;;21.52;12.93;;;;;;;4.35;54.20;100726.98;2041484;86;29744;-60
2022/04/13 01:41:49;;;;;;;25.52;14.30;;;;;;;4.33;54.32;100720.35;2035816;87;27668;-64
2022/04/13 01:44:56;;;;;;;28.05;15.05;;;;;;;4.31;54.68;100724.80;2039160;86;29305;-61
2022/04/13 01:47:58;;;;;;;28.47;13.65;;;;;;;4.30;54.21;100728.82;2056415;86;31624;-61
2022/04/13 01:51:00;;;;;;;24.37;14.23;;;;;;;4.28;54.33;100727.53;2038038;86;34222;-65
2022/04/13 01:54:02;;;;;;;31.05;14.50;;;;;;;4.27;54.52;100732.41;2046380;86;30442;-60
2022/04/13 01:57:05;;;;;;;26.37;13.35;;;;;;;4.23;54.67;100728.05;2052014;86;27928;-62
2022/04/13 02:00:13;;;;;;;32.17;15.75;;;;;;;4.20;54.82;100734.72;2035620;87;29378;-62
2022/04/13 02:03:15;;;;;;;29.27;15.55;;;;;;;4.17;54.85;100730.36;2054685;86;31887;-62
2022/04/13 02:06:19;;;;;;;30.97;15.53;;;;;;;4.15;55.06;100728.17;2044312;86;33956;-61
2022/04/13 02:09:20;;;;;;;27.80;14.70;;;;;;;4.14;54.94;100722.91;2035490;87;29330;-61
2022/04/13 02:12:24;;;;;;;25.90;14.55;;;;;;;4.08;55.22;100726.08;2035797;87;27646;-62
2022/04/13 02:15:27;;;;;;;29.72;15.48;;;;;;;4.06;55.17;100725.66;2030202;87;28097;-61
2022/04/13 02:18:32;;;;;;;27.52;16.77;;;;;;;4.02;55.24;100721.33;2049029;86;31085;-62
2022/04/13 02:21:36;;;;;;;34.73;15.88;;;;;;;3.98;55.24;100731.08;2049902;86;33092;-65
2022/04/13 02:24:39;;;;;;;28.98;15.88;;;;;;;3.94;55.33;100724.09;2054299;86;29714;-62
2022/04/13 02:27:42;;;;;;;32.78;17.02;;;;;;;3.90;55.57;100737.82;2036091;87;27917;-61
2022/04/13 02:30:44;;;;;;;35.13;17.98;;;;;;;3.85;55.76;100735.71;2035155;87;29937;-61
2022/04/13 02:33:47;;;;;;;31.95;17.32;;;;;;;3.81;55.89;100739.30;2035618;85;31897;-60
2022/04/13 02:36:52;;;;;;;33.23;17.02;;;;;;;3.78;55.89;100741.55;2033006;87;34218;-60
2022/04/13 02:39:54;;;;;;;33.00;18.35;;;;;;;3.75;56.27;100735.40;2033304;87;29492;-61
2022/04/13 02:42:56;;;;;;;33.67;18.27;;;;;;;3.70;56.07;100733.28;2047460;86;27588;-67
2022/04/13 02:45:59;;;;;;;33.98;16.35;;;;;;;3.68;56.32;100736.41;2041784;86;29414;-64
2022/04/13 02:49:02;;;;;;;34.18;19.10;;;;;;;3.67;56.33;100736.83;2036228;86;31891;-61
2022/04/13 02:52:05;;;;;;;32.78;18.12;;;;;;;3.64;56.44;100735.58;2050368;86;32975;-62
2022/04/13 02:55:10;;;;;;;33.75;18.02;;;;;;;3.62;56.44;100733.39;2049804;86;29407;-60
2022/04/13 02:58:12;;;;;;;31.90;18.02;;;;;;;3.59;56.33;100736.08;2040709;86;27660;-61
2022/04/13 03:01:14;;;;;;;30.68;17.00;;;;;;;3.55;56.58;100737.01;2032863;87;28707;-61
2022/04/13 03:04:16;;;;;;;31.85;18.50;;;;;;;3.52;57.14;100736.61;2055399;86;31908;-61
2022/04/13 03:07:19;;;;;;;35.55;18.50;;;;;;;3.49;56.83;100737.97;2056033;86;33634;-60
2022/04/13 03:10:21;;;;;;;30.43;17.02;;;;;;;3.48;56.84;100741.05;2054000;86;30627;-60
2022/04/13 03:13:24;;;;;;;33.28;19.60;;;;;;;3.47;56.88;100741.09;2053995;86;27658;-61
2022/04/13 03:16:26;;;;;;;35.00;18.90;;;;;;;3.44;56.89;100739.37;2053994;86;28703;-60
2022/04/13 03:19:28;;;;;;;35.25;18.67;;;;;;;3.44;57.25;100738.05;2044740;86;32371;-60
2022/04/13 03:22:30;;;;;;;34.23;20.15;;;;;;;3.43;57.16;100745.55;2020894;86;33089;-61
2022/04/13 03:25:34;;;;;;;31.80;19.10;;;;;;;3.42;57.10;100740.27;2033121;86;29978;-60
2022/04/13 03:28:36;;;;;;;38.50;19.35;;;;;;;3.39;57.28;100745.63;2055361;86;28139;-61
2022/04/13 03:31:38;;;;;;;35.15;19.92;;;;;;;3.34;57.17;100742.58;2055707;86;29038;-61
2022/04/13 03:34:40;;;;;;;33.88;18.82;;;;;;;3.34;57.38;100746.98;2053943;85;33142;-62
2022/04/13 03:37:42;;;;;;;34.67;19.92;;;;;;;3.33;57.43;100762.01;2054464;86;33478;-60
2022/04/13 03:40:45;;;;;;;38.30;21.62;;;;;;;3.32;57.32;100755.39;2053605;86;30219;-60
2022/04/13 03:43:48;;;;;;;36.58;19.73;;;;;;;3.29;57.42;100755.45;2055808;86;27718;-63
2022/04/13 03:46:50;;;;;;;33.40;20.23;;;;;;;3.28;57.45;100758.53;2055926;86;28706;-63
2022/04/13 03:49:52;;;;;;;36.15;20.08;;;;;;;3.24;57.41;100766.08;2055818;86;31074;-62
2022/04/13 03:52:54;;;;;;;35.43;18.45;;;;;;;3.21;57.59;100765.24;2055497;86;33022;-61
2022/04/13 03:55:56;;;;;;;35.43;20.30;;;;;;;3.17;57.68;100770.56;2055663;86;30126;-61
2022/04/13 03:58:58;;;;;;;33.28;20.45;;;;;;;3.17;57.73;100772.35;2055299;86;27630;-61
2022/04/13 04:02:00;;;;;;;35.15;20.48;;;;;;;3.12;57.84;100765.80;2055205;86;28714;-61
2022/04/13 04:05:04;;;;;;;35.00;20.00;;;;;;;3.11;58.02;100768.44;2055800;86;31776;-61
2022/04/13 04:08:07;;;;;;;35.05;20.32;;;;;;;3.11;58.20;100770.66;2055840;86;33202;-61
2022/04/13 04:11:09;;;;;;;37.33;19.85;;;;;;;3.11;58.27;100773.30;2053918;86;29039;-65
2022/04/13 04:14:11;;;;;;;33.48;19.50;;;;;;;3.13;58.19;100775.48;2054066;86;27678;-62
2022/04/13 04:17:13;;;;;;;34.80;19.65;;;;;;;3.14;58.63;100779.00;2054382;86;29024;-64
2022/04/13 04:20:15;;;;;;;34.25;19.70;;;;;;;3.15;58.55;100782.94;2054098;86;31760;-62
2022/04/13 04:23:17;;;;;;;31.97;19.92;;;;;;;3.17;58.42;100785.13;2055962;86;33322;-61
2022/04/13 04:26:20;;;;;;;39.20;21.97;;;;;;;3.21;58.34;100782.45;2055784;86;30430;-62
2022/04/13 04:29:22;;;;;;;42.90;21.48;;;;;;;3.24;58.48;100779.77;2055810;86;27703;-60
2022/04/13 04:32:24;;;;;;;37.53;20.68;;;;;;;3.27;58.65;100778.42;2022563;86;29352;-60
2022/04/13 04:35:26;;;;;;;33.88;19.60;;;;;;;3.33;58.30;100777.00;2060260;85;31926;-61
2022/04/13 04:38:32;;;;;;;36.80;21.52;;;;;;;3.39;58.58;100777.41;2014369;87;33116;-62
2022/04/13 04:41:32;;;;;;;32.38;19.80;;;;;;;3.45;58.29;100779.95;2036888;85;30747;-61
2022/04/13 04:44:34;;;;;;;39.30;19.67;;;;;;;3.50;58.25;100777.67;2063584;85;27794;-60
2022/04/13 04:47:36;;;;;;;36.10;18.50;;;;;;;3.58;58.24;100770.95;2035780;87;30337;-60
2022/04/13 04:50:38;;;;;;;36.68;20.12;;;;;;;3.66;58.22;100776.15;2061405;85;32097;-61
2022/04/13 04:53:41;;;;;;;32.38;19.10;;;;;;;3.76;58.20;100776.91;2066272;85;33767;-62
2022/04/13 04:56:43;;;;;;;35.58;20.05;;;;;;;3.88;58.09;100778.08;2049633;85;30118;-61
2022/04/13 04:59:46;;;;;;;34.10;18.73;;;;;;;4.03;58.04;100786.23;2072346;85;27676;-68
2022/04/13 05:02:53;;;;;;;29.75;16.97;;;;;;;4.18;57.98;100787.80;2050420;85;29916;-62
2022/04/13 05:05:55;;;;;;;31.05;17.73;;;;;;;4.35;57.74;100791.50;2053152;85;32257;-61
2022/04/13 05:08:57;;;;;;;33.30;19.02;;;;;;;4.58;57.60;100796.00;2069472;85;34204;-64
2022/04/13 05:11:59;;;;;;;35.63;18.42;;;;;;;4.89;57.38;100787.05;2030894;86;29781;-64
2022/04/13 05:15:03;;;;;;;32.60;20.17;;;;;;;5.22;57.02;100792.64;2030582;87;27628;-63
2022/04/13 05:18:06;;;;;;;25.97;17.77;;;;;;;5.54;56.71;100797.75;2047996;85;28671;-62
2022/04/13 05:21:09;;;;;;;34.92;18.42;;;;;;;5.81;56.40;100798.06;2043938;85;31043;-63
2022/04/13 05:24:12;;;;;;;37.67;19.37;;;;;;;6.03;55.86;100801.17;2050571;84;33640;-66
2022/04/13 05:27:16;;;;;;;34.00;19.50;;;;;;;6.16;55.44;100792.44;2069342;85;30231;-64
2022/04/13 05:30:19;;;;;;;;;;;;;;;6.29;55.35;100791.70;2074166;85;27711;-62
2022/04/13 05:33:22;;;;;;;33.33;18.23;;;;;;;6.34;55.11;100792.91;2059961;85;29227;-62
2022/04/13 05:36:24;;;;;;;33.98;18.35;;;;;;;6.40;55.23;100787.45;2059647;85;31053;-62
2022/04/13 05:39:26;;;;;;;32.98;18.73;;;;;;;6.49;55.22;100787.68;2058000;85;32850;-63
2022/04/13 05:42:31;;;;;;;31.62;18.15;;;;;;;6.62;55.03;100785.59;2056224;86;30692;-62
2022/04/13 05:45:33;;;;;;;31.07;18.55;;;;;;;6.79;54.93;100790.47;2054273;85;27682;-63
2022/04/13 05:48:35;;;;;;;33.13;19.27;;;;;;;6.96;54.75;100789.57;2053077;86;29417;-61
2022/04/13 05:51:37;;;;;;;31.40;18.40;;;;;;;7.18;54.80;100785.44;2053242;86;30852;-63
2022/04/13 05:54:39;;;;;;;31.42;20.45;;;;;;;7.38;54.43;100780.43;2068894;85;34285;-62
2022/04/13 05:57:42;;;;;;;32.83;19.40;;;;;;;7.56;54.28;100779.48;2075041;85;29972;-61
2022/04/13 06:00:43;;;;;;;32.17;19.20;;;;;;;7.77;54.26;100781.96;2057890;86;27659;-63
2022/04/13 06:03:46;;;;;;;30.60;19.62;;;;;;;8.08;53.84;100785.02;2057345;85;29629;-61
2022/04/13 06:06:48;;;;;;;33.73;19.77;;;;;;;8.54;53.51;100780.47;2056283;86;32314;-62
2022/04/13 06:09:50;;;;;;;34.18;19.48;;;;;;;9.17;53.33;100779.63;2055493;86;34155;-63
2022/04/13 06:12:52;;;;;;;36.10;18.85;;;;;;;9.95;52.15;100779.40;2052511;86;29406;-62
2022/04/13 06:15:54;;;;;;;33.48;18.48;;;;;;;10.62;50.59;100781.19;2053068;86;27744;-63
2022/04/13 06:18:57;;;;;;;34.55;19.30;;;;;;;11.29;49.73;100782.32;2056342;85;29489;-62
2022/04/13 06:21:59;;;;;;;33.55;18.77;;;;;;;11.86;48.80;100777.50;2071907;85;32366;-62
2022/04/13 06:25:05;;;;;;;29.65;17.90;;;;;;;12.49;49.08;100774.94;2057859;86;33102;-64
2022/04/13 06:28:07;;;;;;;31.90;17.45;;;;;;;13.10;48.39;100774.06;2057795;86;29501;-62
2022/04/13 06:31:09;;;;;;;29.57;17.40;;;;;;;13.79;47.69;100777.58;2054336;85;27563;-63
2022/04/13 06:34:11;;;;;;;29.55;18.85;;;;;;;14.28;46.87;100777.98;2053321;86;28558;-63
2022/04/13 06:37:13;;;;;;;31.15;18.65;;;;;;;14.72;45.79;100783.58;2065550;84;31919;-61
2022/04/13 06:40:16;;;;;;;34.70;19.25;;;;;;;15.47;44.21;100745.72;2071951;85;33075;-63
2022/04/13 06:43:18;;;;;;;37.53;19.35;;;;;;;15.47;44.21;100745.72;2042594;85;30507;-63
2022/04/13 06:46:20;;;;;;;31.73;18.65;;;;;;;16.03;43.68;100769.23;2034726;87;27699;-62
2022/04/13 06:49:22;;;;;;;34.95;19.80;;;;;;;16.39;42.81;100765.07;2042676;85;29892;-61
2022/04/13 06:52:24;;;;;;;32.45;19.67;;;;;;;16.59;40.97;100764.69;2071639;85;32278;-60
2022/04/13 06:55:26;;;;;;;29.75;19.32;;;;;;;16.72;41.02;100772.34;2055357;85;33110;-60
2022/04/13 06:58:28;;;;;;;30.52;19.62;;;;;;;16.97;41.45;100765.30;2036023;87;30513;-60
2022/04/13 07:01:30;;;;;;;29.02;18.17;;;;;;;17.37;40.65;100786.01;2047882;85;27711;-62
2022/04/13 07:04:32;;;;;;;35.08;19.65;;;;;;;17.56;37.78;100786.91;2071854;85;29161;-61
2022/04/13 07:07:35;;;;;;;32.95;19.35;;;;;;;17.82;40.13;100787.75;2041911;85;31462;-61
2022/04/13 07:10:37;;;;;;;28.70;19.05;;;;;;;18.27;38.88;100783.16;2051638;85;33812;-61
2022/04/13 07:13:39;;;;;;;30.15;18.17;;;;;;;18.41;38.24;100783.49;2063110;85;29281;-66
2022/04/13 07:16:41;;;;;;;29.12;18.37;;;;;;;18.75;35.59;100785.01;2071246;85;27724;-62
2022/04/13 07:19:43;;;;;;;28.52;18.32;;;;;;;18.79;36.98;100788.34;2040651;86;29512;-61
2022/04/13 07:22:46;;;;;;;36.85;20.00;;;;;;;19.00;36.49;100783.64;2062823;85;31653;-62
2022/04/13 07:25:48;;;;;;;28.45;17.67;;;;;;;19.21;36.26;100786.02;2051117;85;32417;-63
2022/04/13 07:28:52;;;;;;;32.40;19.52;;;;;;;19.54;35.85;100782.11;2035954;87;30558;-62
2022/04/13 07:31:54;;;;;;;36.80;19.70;;;;;;;19.80;35.29;100786.81;2035855;87;37967;-64
2022/04/13 07:35:03;;;;;;;28.12;18.60;;;;;;;20.03;35.40;100789.52;2035951;87;30084;-65
2022/04/13 07:38:07;;;;;;;31.97;18.70;;;;;;;20.33;34.61;100787.50;2075538;84;31059;-65
2022/04/13 07:41:08;;;;;;;38.35;19.12;;;;;;;20.51;34.40;100782.87;2073780;84;33780;-67
2022/04/13 07:44:11;;;;;;;30.82;16.60;;;;;;;20.72;33.53;100784.27;2085852;85;30466;-76
2022/04/13 07:47:16;;;;;;;26.57;16.62;;;;;;;20.64;32.16;100790.36;2104172;84;27755;-65
2022/04/13 07:50:18;;;;;;;;;;;;;;;20.77;32.58;100790.22;2107927;84;29284;-64
2022/04/13 07:53:19;;;;;;;23.95;16.80;;;;;;;20.91;32.72;100787.69;2106243;84;32427;-63
2022/04/13 07:56:21;;;;;;;23.42;15.80;;;;;;;21.39;32.87;100788.14;2095898;84;33489;-64
2022/04/13 07:59:23;;;;;;;31.23;17.90;;;;;;;21.77;31.50;100789.34;2041762;85;29683;-67
2022/04/13 08:02:25;;;;;;;25.97;17.25;;;;;;;21.84;31.46;100790.53;2010472;87;27689;-70
2022/04/13 08:05:26;;;;;;;26.48;17.02;;;;;;;21.84;30.07;100792.41;2038591;87;29242;-71
2022/04/13 08:08:28;;;;;;;26.12;16.45;;;;;;;21.97;31.54;100784.84;2038444;87;31391;-68
2022/04/13 08:11:30;;;;;;;26.97;16.25;;;;;;;22.36;31.70;100782.70;2040110;87;33657;-69
2022/04/13 08:14:32;;;;;;;26.07;17.42;;;;;;;22.85;31.33;100790.09;2039512;87;29682;-69
2022/04/13 08:17:33;;;;;;;25.65;15.28;;;;;;;22.99;30.37;100775.97;2040468;87;27706;-68
2022/04/13 08:20:35;;;;;;;25.32;15.63;;;;;;;23.16;29.76;100779.84;2042198;84;29082;-69
2022/04/13 08:23:37;;;;;;;26.73;15.00;;;;;;;23.20;29.50;100774.45;2107151;84;31645;-68
2022/04/13 08:26:39;;;;;;;21.80;15.88;;;;;;;23.39;29.64;100771.83;2083418;84;33324;-68
2022/04/13 08:29:40;;;;;;;22.67;14.28;;;;;;;23.40;29.50;100774.92;2086848;84;30428;-68
2022/04/13 08:32:42;;;;;;;21.97;14.40;;;;;;;23.59;29.63;100764.41;2104713;84;27752;-68
2022/04/13 08:35:44;;;;;;;20.50;13.45;;;;;;;23.58;28.79;100769.53;2070594;85;29265;-68
2022/04/13 08:38:46;;;;;;;22.52;14.70;;;;;;;23.42;27.53;100766.92;2101659;84;31391;-64
2022/04/13 08:42:08;;;;;;;19.98;14.00;;;;;;;23.06;28.50;100762.09;2096251;84;33009;-69
2022/04/13 08:45:23;;;;;;;19.60;12.90;;;;;;;22.85;28.73;100756.78;2081385;84;29764;-69
2022/04/13 08:48:26;;;;;;;21.37;13.90;;;;;;;22.53;27.94;100760.67;2107332;84;27688;-65
2022/04/13 08:51:28;;;;;;;24.67;14.30;;;;;;;21.89;27.72;100754.65;2106470;84;29888;-68
2022/04/13 08:54:32;;;;;;;31.93;13.68;;;;;;;21.45;28.75;100756.23;2107221;84;31424;-67
2022/04/13 08:57:37;;;;;;;21.80;13.15;;;;;;;21.22;28.96;100748.25;2067295;85;33339;-64
2022/04/13 09:00:44;;;;;;;23.45;14.18;;;;;;;21.02;29.23;100754.05;2075819;84;30101;-63
2022/04/13 09:03:48;;;;;;;23.52;13.55;;;;;;;20.81;29.21;100751.33;2086734;84;28332;-65
2022/04/13 09:06:50;;;;;;;19.83;12.17;;;;;;;20.55;29.50;100742.16;2104899;84;28863;-65
2022/04/13 09:09:54;;;;;;;22.42;12.60;;;;;;;20.44;29.51;100745.78;2095623;84;31161;-72
2022/04/13 09:12:58;;;;;;;20.48;13.40;;;;;;;20.41;29.51;100746.03;2078773;84;34767;-64
2022/04/13 09:16:01;;;;;;;24.52;12.63;;;;;;;20.38;29.41;100740.84;2104793;84;29320;-70
2022/04/13 09:19:04;;;;;;;20.32;11.43;;;;;;;20.38;29.21;100743.56;2009728;87;28446;-66
2022/04/13 09:22:08;;;;;;;29.70;12.40;;;;;;;20.17;28.63;100744.39;2084206;84;29679;-66
2022/04/13 09:25:11;;;;;;;18.73;10.75;;;;;;;19.81;28.98;100735.53;2098685;84;32325;-62
2022/04/13 09:28:13;;;;;;;16.75;10.05;;;;;;;19.68;28.83;100738.88;2103431;84;34238;-66
2022/04/13 09:31:15;;;;;;;18.75;11.40;;;;;;;19.59;29.16;100741.86;2074352;84;29714;-68
2022/04/13 09:34:16;;;;;;;16.20;10.13;;;;;;;19.66;29.50;100743.58;2074604;85;27642;-64
2022/04/13 09:37:20;;;;;;;18.37;11.70;;;;;;;19.68;29.18;100743.81;2080468;84;29405;-59
2022/04/13 09:40:39;;;;;;;13.78;9.78;;;;;;;19.67;29.60;100740.72;2106095;84;31094;-62
2022/04/13 09:43:41;;;;;;;15.28;9.00;;;;;;;19.64;29.42;100742.33;2089261;84;33218;-61
2022/04/13 09:46:45;;;;;;;20.92;10.15;;;;;;;19.61;29.13;100749.36;2026855;84;30185;-61
2022/04/13 09:49:53;;;;;;;18.37;10.28;;;;;;;19.47;29.60;100742.82;2083979;84;28216;-62
2022/04/13 09:53:05;;;;;;;13.53;9.53;;;;;;;19.42;29.18;100741.36;2086045;84;29499;-61
2022/04/13 09:56:09;;;;;;;16.27;9.85;;;;;;;19.34;28.73;100743.81;2088927;84;31887;-60
2022/04/13 09:59:11;;;;;;;23.12;10.30;;;;;;;19.19;28.45;100740.48;2060418;84;35427;-61
2022/04/13 10:02:16;;;;;;;17.32;11.03;;;;;;;19.02;28.59;100739.08;2089876;84;35209;-62
2022/04/13 10:05:23;;;;;;;14.78;9.40;;;;;;;18.98;29.28;100740.30;2061644;84;27823;-62
2022/04/13 10:08:27;;;;;;;18.60;10.68;;;;;;;18.98;29.91;100728.95;2087703;84;30880;-67
2022/04/13 10:11:30;;;;;;;21.02;11.80;;;;;;;19.08;29.48;100728.22;2090401;84;31045;-62
2022/04/13 10:14:32;;;;;;;19.67;11.70;;;;;;;19.05;29.40;100727.98;2090688;84;34203;-68
2022/04/13 10:17:35;;;;;;;20.15;11.97;;;;;;;19.04;29.73;100719.94;2088628;84;30678;-63
2022/04/13 10:20:47;;;;;;;21.15;11.95;;;;;;;19.07;29.59;100731.44;2090812;84;27772;-62
2022/04/13 10:23:49;;;;;;;18.23;10.70;;;;;;;19.09;29.88;100725.88;2085352;84;28832;-61
2022/04/13 10:27:12;;;;;;;20.88;10.95;;;;;;;19.11;29.55;100729.34;2088875;84;32285;-63
2022/04/13 10:30:28;;;;;;;21.85;11.30;;;;;;;19.10;29.25;100722.17;2089996;84;33180;-70
2022/04/13 10:33:35;;;;;;;16.67;10.23;;;;;;;19.05;29.38;100727.98;2090019;84;30236;-61
2022/04/13 10:36:37;;;;;;;19.98;11.53;;;;;;;19.02;28.44;100720.07;2059236;84;27740;-66
2022/04/13 10:39:41;;;;;;;20.35;12.25;;;;;;;18.92;28.81;100721.75;2079547;85;29960;-63
2022/04/13 10:42:50;;;;;;;20.37;13.30;;;;;;;18.86;29.25;100720.87;2081320;85;31094;-66
2022/04/13 10:45:50;;;;;;;18.55;11.10;;;;;;;18.83;29.10;100715.20;2075291;85;33682;-64
2022/04/13 10:48:55;;;;;;;15.70;10.10;;;;;;;18.68;28.63;100719.95;2079862;85;30564;-65
2022/04/13 10:52:02;;;;;;;15.20;10.28;;;;;;;18.55;28.50;100710.53;2081752;85;27717;-63
2022/04/13 10:55:08;;;;;;;17.27;11.05;;;;;;;18.49;28.80;100709.16;2050143;86;28654;-63
2022/04/13 10:58:35;;;;;;;19.17;10.98;;;;;;;18.45;29.18;100710.36;2003680;87;31222;-63
2022/04/13 11:01:53;;;;;;;20.02;14.03;;;;;;;18.53;29.82;100715.23;2026094;87;34027;-63
2022/04/13 11:04:57;;;;;;;18.73;9.73;;;;;;;18.58;29.14;100710.30;2031896;87;29355;-64
2022/04/13 11:08:36;;;;;;;16.97;10.00;;;;;;;18.48;28.75;100696.57;2031913;87;27648;-63
2022/04/13 11:11:38;;;;;;;17.67;11.40;;;;;;;18.47;29.14;100696.20;1998356;89;29053;-64
2022/04/13 11:14:50;;;;;;;22.80;13.00;;;;;;;18.52;29.42;100698.08;2035060;86;31775;-66
2022/04/13 11:17:52;;;;;;;20.35;13.30;;;;;;;18.54;29.33;100704.73;2050034;86;33651;-65
2022/04/13 11:21:04;;;;;;;22.73;11.97;;;;;;;18.53;29.71;100697.09;2049809;86;29363;-63
2022/04/13 11:24:06;;;;;;;25.23;12.65;;;;;;;18.59;29.94;100706.60;2032035;87;27641;-62
2022/04/13 11:27:10;;;;;;;23.98;13.30;;;;;;;18.68;30.12;100695.05;2031152;87;29024;-62
2022/04/13 11:30:12;;;;;;;28.65;18.30;;;;;;;18.77;30.30;100700.26;2039817;87;31017;-62
2022/04/13 11:33:14;;;;;;;20.60;12.35;;;;;;;18.88;29.81;100702.11;2037289;86;33576;-62
2022/04/13 11:36:16;;;;;;;22.55;12.98;;;;;;;18.90;29.66;100698.78;1995214;89;29691;-62
2022/04/13 11:39:49;;;;;;;22.62;13.20;;;;;;;18.94;29.81;100698.95;2081667;85;27711;-62
2022/04/13 11:42:52;;;;;;;24.27;12.43;;;;;;;18.91;29.66;100697.80;2073522;85;28880;-62
2022/04/13 11:45:55;;;;;;;21.70;13.05;;;;;;;18.91;28.96;100701.02;2038522;86;31095;-62
2022/04/13 11:48:57;;;;;;;26.42;13.22;;;;;;;18.88;29.07;100699.89;2035833;87;33438;-62
2022/04/13 11:51:59;;;;;;;20.85;13.15;;;;;;;18.90;28.97;100699.28;2036055;87;30524;-61
2022/04/13 11:55:01;;;;;;;22.22;13.90;;;;;;;18.88;29.21;100695.31;2044342;85;27784;-64
2022/04/13 11:58:13;;;;;;;26.93;13.90;;;;;;;18.88;29.54;100681.74;2090816;84;29923;-61
2022/04/13 12:01:16;;;;;;;22.45;14.45;;;;;;;18.85;29.58;100680.66;2101106;84;30435;-61
2022/04/13 12:04:24;;;;;;;29.95;15.80;;;;;;;18.87;29.63;100679.16;2050615;85;33619;-61
2022/04/13 12:07:28;;;;;;;21.60;12.53;;;;;;;18.86;29.79;100674.24;2072107;85;29691;-62
2022/04/13 12:10:37;;;;;;;20.75;12.58;;;;;;;18.86;29.28;100672.88;2022531;85;27742;-62
2022/04/13 12:13:53;;;;;;;22.13;12.55;;;;;;;18.91;29.17;100673.88;2072936;85;28651;-62
2022/04/13 12:16:59;;;;;;;22.32;12.37;;;;;;;18.92;28.85;100668.81;2070947;85;31781;-62
2022/04/13 12:20:01;;;;;;;21.12;13.38;;;;;;;18.94;28.55;100666.84;2070542;86;33501;-61
2022/04/13 12:23:25;;;;;;;28.80;15.15;;;;;;;18.97;28.78;100667.49;2070339;85;29889;-61
2022/04/13 12:26:36;;;;;;;25.48;14.90;;;;;;;19.00;29.58;100658.73;2071513;85;27757;-63
2022/04/13 12:29:39;;;;;;;22.73;14.20;;;;;;;19.06;29.65;100659.11;2072042;85;28711;-62
2022/04/13 12:32:48;;;;;;;23.95;15.60;;;;;;;19.11;29.17;100656.86;2071869;84;31913;-62
2022/04/13 12:35:58;;;;;;;22.05;13.88;;;;;;;19.18;29.50;100661.81;2070774;85;33976;-62
2022/04/13 12:39:00;;;;;;;24.90;14.55;;;;;;;19.24;29.45;100658.11;2077304;85;29718;-62
2022/04/13 12:42:04;;;;;;;22.15;14.18;;;;;;;19.27;29.47;100652.44;2049313;85;27721;-62
2022/04/13 12:45:11;;;;;;;;;;;;;;;19.33;29.22;100651.58;2047669;85;28689;-62
2022/04/13 12:48:13;;;;;;;21.23;13.48;;;;;;;19.32;28.82;100651.20;2045341;87;30812;-62
2022/04/13 12:51:16;;;;;;;22.87;13.20;;;;;;;19.26;28.76;100646.63;2058223;85;32982;-62
2022/04/13 12:54:19;;;;;;;19.48;10.82;;;;;;;19.25;28.32;100642.19;2043606;87;29520;-63
2022/04/13 12:57:21;;;;;;;21.50;12.43;;;;;;;19.27;27.46;100642.08;2054226;85;27708;-67
2022/04/13 13:00:54;;;;;;;19.12;12.23;;;;;;;19.25;27.58;100639.47;2044411;87;29071;-62
2022/04/13 13:03:59;;;;;;;24.98;15.72;;;;;;;19.24;27.37;100639.60;2012968;88;32065;-61
2022/04/13 13:07:06;;;;;;;24.30;14.75;;;;;;;19.23;28.43;100636.01;2003637;88;33791;-63
2022/04/13 13:10:10;;;;;;;22.13;14.85;;;;;;;19.24;28.50;100632.30;2053602;85;29791;-62
2022/04/13 13:13:19;;;;;;;23.27;15.18;;;;;;;19.24;28.50;100628.73;2068827;85;27742;-66
2022/04/13 13:16:34;;;;;;;20.70;14.03;;;;;;;19.27;28.34;100617.63;2057471;86;29569;-62
2022/04/13 13:19:36;;;;;;;22.02;12.70;;;;;;;19.28;27.94;100617.97;2054730;86;31169;-65
2022/04/13 13:22:50;;;;;;;23.65;14.50;;;;;;;19.31;28.17;100623.16;2035831;86;34323;-62
2022/04/13 13:25:52;;;;;;;23.87;14.33;;;;;;;19.31;27.80;100616.37;2036412;87;30575;-62
2022/04/13 13:28:54;;;;;;;31.60;14.95;;;;;;;19.32;28.31;100613.17;2036171;87;27687;-67
2022/04/13 13:31:57;;;;;;;24.77;15.45;;;;;;;19.33;28.34;100614.91;2036002;87;29880;-67
2022/04/13 13:35:05;;;;;;;24.07;13.90;;;;;;;19.31;28.56;100609.58;2065624;85;31609;-63
2022/04/13 13:38:18;;;;;;;27.80;13.20;;;;;;;19.28;28.07;100605.75;2063455;85;32943;-61
2022/04/13 13:41:21;;;;;;;22.52;13.55;;;;;;;19.26;28.21;100607.75;2049591;86;29421;-62
2022/04/13 13:44:23;;;;;;;23.70;15.05;;;;;;;19.28;28.37;100603.03;2048180;86;28291;-74
2022/04/13 13:47:27;;;;;;;23.22;13.50;;;;;;;19.29;28.32;100606.12;2050987;86;29061;-68
2022/04/13 13:50:30;;;;;;;18.70;12.88;;;;;;;19.27;28.09;100599.97;2051015;86;31183;-67
2022/04/13 13:53:32;;;;;;;19.65;12.13;;;;;;;19.25;27.72;100600.08;2025808;86;34192;-62
2022/04/13 13:56:34;;;;;;;25.35;13.93;;;;;;;19.21;27.62;100595.03;2050318;86;30685;-63
2022/04/13 13:59:36;;;;;;;22.20;13.88;;;;;;;19.20;28.29;100594.66;2050785;86;27776;-63
2022/04/13 14:02:38;;;;;;;20.62;13.20;;;;;;;19.21;28.52;100593.67;2049005;86;29907;-63